Time;durP1;ratioP1;P1;durP2;ratioP2;P2;SDS_P1;SDS_P2;PMS_P1;PMS_P2;Temp;Humidity;BMP_temperature;BMP_pressure;BME280_temperature;BME280_humidity;BME280_pressure;Samples;Min_cycle;Max_cycle;Signal;HPM_P1;HPM_P2
2022/07/18 00:02:20;;;;;;;2.77;1.60;;;;;;;;;;4953979;28;20189;-79
2022/07/18 00:04:45;;;;;;;1.60;1.50;;;;;;;;;;4936101;29;20220;-79
2022/07/18 00:07:10;;;;;;;1.60;1.50;;;;;;;;;;4943287;29;20186;-79
2022/07/18 00:09:36;;;;;;;2.37;1.63;;;;;;;;;;4950282;28;20383;-79
2022/07/18 00:12:02;;;;;;;2.03;1.80;;;;;;;;;;4951008;29;20236;-79
2022/07/18 00:14:27;;;;;;;1.70;1.60;;;;;;;;;;4943293;28;20260;-79
2022/07/18 00:16:52;;;;;;;3.67;1.60;;;;;;;;;;4932264;29;20178;-79
2022/07/18 00:19:17;;;;;;;2.13;1.93;;;;;;;;;;4935878;29;20185;-79
2022/07/18 00:21:43;;;;;;;1.50;1.40;;;;;;;;;;4952617;28;20192;-79
2022/07/18 00:24:08;;;;;;;1.77;1.67;;;;;;;;;;4952340;28;20188;-79
2022/07/18 00:26:33;;;;;;;1.70;1.60;;;;;;;;;;4949119;29;20231;-79
2022/07/18 00:28:58;;;;;;;2.20;1.60;;;;;;;;;;4949692;28;20208;-79
2022/07/18 00:31:24;;;;;;;1.70;1.60;;;;;;;;;;4950434;28;20225;-79
2022/07/18 00:33:49;;;;;;;3.40;2.00;;;;;;;;;;4935071;29;20180;-79
2022/07/18 00:36:14;;;;;;;2.23;1.70;;;;;;;;;;4949349;28;20190;-79
2022/07/18 00:38:39;;;;;;;1.60;1.50;;;;;;;;;;4934777;29;20204;-79
2022/07/18 00:41:05;;;;;;;1.63;1.53;;;;;;;;;;4932422;29;20297;-79
2022/07/18 00:43:30;;;;;;;3.80;1.77;;;;;;;;;;4931425;29;20182;-79
2022/07/18 00:45:56;;;;;;;1.80;1.50;;;;;;;;;;4957638;28;20215;-78
2022/07/18 00:48:21;;;;;;;2.20;1.60;;;;;;;;;;4940910;29;20204;-79
2022/07/18 00:50:47;;;;;;;3.10;1.63;;;;;;;;;;4929920;29;20240;-78
2022/07/18 00:53:12;;;;;;;2.10;1.53;;;;;;;;;;4929698;29;20244;-78
2022/07/18 00:55:44;;;;;;;3.20;1.93;;;;;;;;;;4932588;29;20200;-78
2022/07/18 00:58:10;;;;;;;2.33;1.70;;;;;;;;;;4936167;29;20180;-78
2022/07/18 01:03:19;;;;;;;2.17;1.50;;;;;;;;;;4935444;29;20188;-79
2022/07/18 01:05:44;;;;;;;1.63;1.40;;;;;;;;;;4946741;28;20196;-78
2022/07/18 01:08:10;;;;;;;1.40;1.30;;;;;;;;;;4947804;28;20223;-79
2022/07/18 01:10:35;;;;;;;1.90;1.80;;;;;;;;;;4933933;29;20220;-79
2022/07/18 01:13:00;;;;;;;1.70;1.60;;;;;;;;;;4946576;29;20179;-78
2022/07/18 01:15:25;;;;;;;2.77;1.50;;;;;;;;;;4948615;29;20190;-78
2022/07/18 01:17:51;;;;;;;2.13;1.63;;;;;;;;;;4956237;28;20175;-79
2022/07/18 01:20:16;;;;;;;2.17;1.40;;;;;;;;;;4943397;28;20180;-78
2022/07/18 01:22:41;;;;;;;1.80;1.50;;;;;;;;;;4924466;29;20207;-78
2022/07/18 01:25:08;;;;;;;1.73;1.43;;;;;;;;;;4934102;29;20199;-78
2022/07/18 01:27:33;;;;;;;2.10;1.60;;;;;;;;;;4933584;29;20217;-78
2022/07/18 01:29:59;;;;;;;3.00;1.60;;;;;;;;;;4944584;28;20286;-78
2022/07/18 01:32:24;;;;;;;1.63;1.53;;;;;;;;;;4950117;28;20183;-78
2022/07/18 01:34:49;;;;;;;1.80;1.70;;;;;;;;;;4952249;28;20180;-79
2022/07/18 01:37:15;;;;;;;2.00;1.53;;;;;;;;;;4946375;29;20215;-79
2022/07/18 01:39:41;;;;;;;2.60;1.50;;;;;;;;;;4950425;29;20219;-78
2022/07/18 01:42:07;;;;;;;1.57;1.40;;;;;;;;;;4932545;29;20270;-78
2022/07/18 01:44:33;;;;;;;1.77;1.67;;;;;;;;;;4930517;29;20311;-78
2022/07/18 01:46:59;;;;;;;3.03;1.50;;;;;;;;;;4931822;29;20210;-79
2022/07/18 01:49:25;;;;;;;2.07;1.50;;;;;;;;;;4948130;28;20231;-79
2022/07/18 01:51:52;;;;;;;1.70;1.60;;;;;;;;;;4943417;29;20279;-78
2022/07/18 01:54:21;;;;;;;1.60;1.47;;;;;;;;;;4948182;29;20179;-78
2022/07/18 01:56:46;;;;;;;3.10;1.40;;;;;;;;;;4946031;29;20250;-78
2022/07/18 01:59:12;;;;;;;1.57;1.47;;;;;;;;;;4947641;29;20233;-78
2022/07/18 02:01:37;;;;;;;1.70;1.60;;;;;;;;;;4952308;28;20190;-78
2022/07/18 02:04:02;;;;;;;2.43;1.50;;;;;;;;;;4933104;29;20319;-78
2022/07/18 02:06:28;;;;;;;1.60;1.47;;;;;;;;;;4931018;29;20182;-78
2022/07/18 02:08:53;;;;;;;1.60;1.13;;;;;;;;;;4944902;28;20254;-79
2022/07/18 02:11:18;;;;;;;3.20;1.30;;;;;;;;;;4932899;29;20183;-78
2022/07/18 02:13:43;;;;;;;2.27;1.50;;;;;;;;;;4947863;29;20187;-78
2022/07/18 02:16:08;;;;;;;1.87;1.30;;;;;;;;;;4946557;28;20244;-78
2022/07/18 02:18:34;;;;;;;1.73;1.40;;;;;;;;;;4934413;28;20230;-78
2022/07/18 02:21:00;;;;;;;2.10;1.53;;;;;;;;;;4926261;29;20237;-78
2022/07/18 02:23:25;;;;;;;2.00;1.60;;;;;;;;;;4956298;28;20193;-78
2022/07/18 02:25:50;;;;;;;2.53;1.40;;;;;;;;;;4931950;29;20186;-78
2022/07/18 02:28:16;;;;;;;1.83;1.50;;;;;;;;;;4939929;29;20185;-78
2022/07/18 02:30:41;;;;;;;5.57;1.60;;;;;;;;;;4950199;28;20250;-78
2022/07/18 02:33:06;;;;;;;2.53;1.70;;;;;;;;;;4946478;29;20207;-78
2022/07/18 02:35:31;;;;;;;1.70;1.60;;;;;;;;;;4932760;29;20180;-78
2022/07/18 02:37:57;;;;;;;1.40;1.30;;;;;;;;;;4942142;28;20170;-78
2022/07/18 02:40:22;;;;;;;1.37;1.27;;;;;;;;;;4930827;29;20189;-78
2022/07/18 02:42:47;;;;;;;2.53;1.17;;;;;;;;;;4933749;29;20250;-78
2022/07/18 02:45:13;;;;;;;1.77;1.57;;;;;;;;;;4940461;29;20184;-78
2022/07/18 02:47:41;;;;;;;2.50;1.57;;;;;;;;;;4946723;28;20277;-78
2022/07/18 02:50:07;;;;;;;3.43;1.40;;;;;;;;;;4942546;28;20514;-78
2022/07/18 02:52:32;;;;;;;1.10;1.10;;;;;;;;;;4928801;28;20264;-78
2022/07/18 02:55:00;;;;;;;2.40;1.80;;;;;;;;;;4931505;29;20189;-78
2022/07/18 02:57:25;;;;;;;1.67;1.47;;;;;;;;;;4940793;28;20192;-78
2022/07/18 02:59:51;;;;;;;2.23;1.27;;;;;;;;;;4946964;29;20189;-78
2022/07/18 03:02:16;;;;;;;1.93;1.50;;;;;;;;;;4942597;29;20213;-78
2022/07/18 03:04:41;;;;;;;2.53;1.27;;;;;;;;;;4930587;29;20217;-77
2022/07/18 03:07:06;;;;;;;1.50;1.40;;;;;;;;;;4947630;28;20190;-78
2022/07/18 03:09:31;;;;;;;2.07;1.40;;;;;;;;;;4928304;29;20287;-78
2022/07/18 03:11:57;;;;;;;1.13;1.07;;;;;;;;;;4930351;29;20181;-78
2022/07/18 03:14:22;;;;;;;1.60;1.27;;;;;;;;;;4923819;29;20208;-78
2022/07/18 03:16:47;;;;;;;2.53;1.50;;;;;;;;;;4927174;29;20271;-78
2022/07/18 03:19:12;;;;;;;1.40;1.20;;;;;;;;;;4931047;29;20219;-78
2022/07/18 03:21:38;;;;;;;2.17;1.70;;;;;;;;;;4948102;28;20188;-78
2022/07/18 03:24:03;;;;;;;1.50;1.40;;;;;;;;;;4931575;29;20187;-78
2022/07/18 03:26:29;;;;;;;1.33;1.23;;;;;;;;;;4926445;29;20504;-78
2022/07/18 03:28:54;;;;;;;1.50;1.30;;;;;;;;;;4944198;28;20263;-78
2022/07/18 03:31:19;;;;;;;3.03;1.73;;;;;;;;;;4948643;28;20193;-78
2022/07/18 03:33:45;;;;;;;1.57;1.47;;;;;;;;;;4940682;28;20188;-78
2022/07/18 03:36:10;;;;;;;3.20;1.77;;;;;;;;;;4954750;28;20180;-78
2022/07/18 03:38:42;;;;;;;1.60;1.50;;;;;;;;;;4943018;29;20181;-78
2022/07/18 03:41:08;;;;;;;1.83;1.40;;;;;;;;;;4944443;29;20531;-77
2022/07/18 03:43:36;;;;;;;1.40;1.30;;;;;;;;;;4927964;29;20204;-78
2022/07/18 03:46:01;;;;;;;1.83;1.30;;;;;;;;;;4939448;29;20182;-78
2022/07/18 03:48:26;;;;;;;1.63;1.37;;;;;;;;;;4937679;29;20231;-78
2022/07/18 03:50:51;;;;;;;1.97;1.40;;;;;;;;;;4955872;28;20200;-78
2022/07/18 03:53:16;;;;;;;1.50;1.40;;;;;;;;;;4923050;29;20176;-78
2022/07/18 03:55:42;;;;;;;6.03;1.63;;;;;;;;;;4943172;29;20300;-78
2022/07/18 03:58:07;;;;;;;3.03;2.13;;;;;;;;;;4929285;29;20181;-77
2022/07/18 04:00:33;;;;;;;1.47;1.37;;;;;;;;;;4945518;29;20184;-77
2022/07/18 04:02:59;;;;;;;2.93;1.73;;;;;;;;;;4946886;28;20179;-78
2022/07/18 04:05:24;;;;;;;1.97;1.27;;;;;;;;;;4927004;29;20213;-77
2022/07/18 04:07:49;;;;;;;2.27;1.47;;;;;;;;;;4962240;28;20178;-78
2022/07/18 04:10:14;;;;;;;2.13;1.20;;;;;;;;;;4971372;28;20297;-78
2022/07/18 04:12:53;;;;;;;3.73;1.50;;;;;;;;;;4958052;28;20174;-78
2022/07/18 04:15:19;;;;;;;1.80;1.40;;;;;;;;;;4955592;28;20178;-77
2022/07/18 04:17:44;;;;;;;3.23;1.60;;;;;;;;;;4973044;28;20190;-78
2022/07/18 04:20:10;;;;;;;1.60;1.43;;;;;;;;;;4947005;28;20195;-78
2022/07/18 04:22:45;;;;;;;4.10;2.43;;;;;;;;;;4980340;28;20189;-77
2022/07/18 04:25:10;;;;;;;3.33;2.90;;;;;;;;;;4974488;28;20197;-78
2022/07/18 04:27:35;;;;;;;2.33;2.13;;;;;;;;;;4958135;28;20215;-78
2022/07/18 04:30:01;;;;;;;1.87;1.43;;;;;;;;;;4981499;28;20297;-78
2022/07/18 04:32:26;;;;;;;2.60;2.00;;;;;;;;;;4974628;28;20186;-78
2022/07/18 04:34:51;;;;;;;3.53;1.90;;;;;;;;;;4956688;28;20212;-78
2022/07/18 04:37:16;;;;;;;2.80;1.50;;;;;;;;;;4982367;28;20187;-78
2022/07/18 04:39:41;;;;;;;2.50;1.47;;;;;;;;;;4980100;28;20189;-79
2022/07/18 04:42:07;;;;;;;6.87;2.03;;;;;;;;;;4957099;28;20186;-78
2022/07/18 04:44:32;;;;;;;2.50;2.00;;;;;;;;;;4970204;28;20181;-78
2022/07/18 04:46:57;;;;;;;3.00;1.50;;;;;;;;;;4976140;28;20186;-78
2022/07/18 04:49:24;;;;;;;2.60;2.30;;;;;;;;;;4971530;28;20208;-78
2022/07/18 04:51:49;;;;;;;1.87;1.70;;;;;;;;;;4950490;28;20412;-78
2022/07/18 04:54:15;;;;;;;3.30;1.70;;;;;;;;;;4952313;28;20438;-78
2022/07/18 04:56:40;;;;;;;5.57;2.23;;;;;;;;;;4976729;28;20195;-78
2022/07/18 04:59:05;;;;;;;1.77;1.47;;;;;;;;;;4951990;28;20298;-78
2022/07/18 05:01:31;;;;;;;1.63;1.53;;;;;;;;;;4965954;28;20204;-78
2022/07/18 05:03:56;;;;;;;2.43;1.50;;;;;;;;;;4971710;28;20195;-78
2022/07/18 05:06:21;;;;;;;3.97;2.00;;;;;;;;;;4973254;28;20240;-78
2022/07/18 05:08:46;;;;;;;4.17;1.77;;;;;;;;;;4972346;28;20299;-78
2022/07/18 05:11:12;;;;;;;2.60;2.00;;;;;;;;;;4972376;28;20191;-79
2022/07/18 05:13:37;;;;;;;3.17;1.80;;;;;;;;;;4945844;28;20194;-78
2022/07/18 05:16:03;;;;;;;2.03;1.60;;;;;;;;;;4973572;28;20176;-78
2022/07/18 05:18:28;;;;;;;7.00;3.37;;;;;;;;;;4968839;28;20203;-79
2022/07/18 05:20:53;;;;;;;3.73;2.43;;;;;;;;;;4956323;28;20223;-79
2022/07/18 05:23:18;;;;;;;2.13;1.40;;;;;;;;;;4951048;28;20203;-78
2022/07/18 05:25:44;;;;;;;1.90;1.77;;;;;;;;;;4975174;28;20183;-78
2022/07/18 05:28:09;;;;;;;1.70;1.60;;;;;;;;;;4975656;28;20184;-78
2022/07/18 05:30:34;;;;;;;2.00;1.77;;;;;;;;;;4974369;28;20267;-78
2022/07/18 05:32:59;;;;;;;2.17;1.80;;;;;;;;;;4962196;28;20268;-78
2022/07/18 05:35:25;;;;;;;3.30;1.70;;;;;;;;;;4961792;28;20184;-78
2022/07/18 05:37:50;;;;;;;2.30;1.90;;;;;;;;;;4966174;28;20184;-79
2022/07/18 05:40:15;;;;;;;2.50;1.90;;;;;;;;;;4977939;28;20227;-78
2022/07/18 05:42:41;;;;;;;3.83;2.87;;;;;;;;;;4976948;28;20279;-78
2022/07/18 05:45:07;;;;;;;3.83;2.60;;;;;;;;;;4951929;28;20190;-78
2022/07/18 05:47:32;;;;;;;2.63;2.00;;;;;;;;;;4950677;28;20185;-78
2022/07/18 05:49:57;;;;;;;2.53;1.90;;;;;;;;;;4966264;28;20198;-79
2022/07/18 05:52:22;;;;;;;2.00;1.80;;;;;;;;;;4970277;28;20188;-79
2022/07/18 05:54:47;;;;;;;2.10;1.90;;;;;;;;;;4970061;28;20185;-79
2022/07/18 05:57:13;;;;;;;3.10;2.10;;;;;;;;;;4971252;28;20202;-79
2022/07/18 05:59:38;;;;;;;2.00;1.90;;;;;;;;;;4968905;28;20200;-78
2022/07/18 06:02:03;;;;;;;3.00;2.10;;;;;;;;;;4968447;28;20178;-78
2022/07/18 06:04:28;;;;;;;3.23;2.10;;;;;;;;;;4956160;28;20183;-79
2022/07/18 06:06:54;;;;;;;4.17;1.90;;;;;;;;;;4971791;28;20178;-78
2022/07/18 06:09:19;;;;;;;2.40;2.10;;;;;;;;;;4938678;28;20248;-79
2022/07/18 06:11:44;;;;;;;3.43;1.70;;;;;;;;;;4947120;29;20180;-79
2022/07/18 06:14:10;;;;;;;2.07;1.80;;;;;;;;;;4934492;29;20184;-79
2022/07/18 06:16:36;;;;;;;2.20;2.00;;;;;;;;;;4954513;28;20211;-79
2022/07/18 06:19:02;;;;;;;2.20;2.00;;;;;;;;;;4947341;29;20190;-79
2022/07/18 06:21:27;;;;;;;2.33;2.13;;;;;;;;;;4937072;28;20189;-80
2022/07/18 06:23:53;;;;;;;3.23;2.20;;;;;;;;;;4936464;29;20192;-79
2022/07/18 06:26:18;;;;;;;3.50;2.37;;;;;;;;;;4952054;28;20185;-78
2022/07/18 06:28:43;;;;;;;3.23;2.10;;;;;;;;;;4947435;28;20193;-79
2022/07/18 06:31:08;;;;;;;2.10;2.00;;;;;;;;;;4946607;28;20185;-79
2022/07/18 06:33:34;;;;;;;2.23;1.93;;;;;;;;;;4944813;29;20273;-79
2022/07/18 06:35:59;;;;;;;2.50;2.30;;;;;;;;;;4929410;29;20236;-79
2022/07/18 06:38:24;;;;;;;2.10;1.90;;;;;;;;;;4927677;29;20185;-79
2022/07/18 06:40:49;;;;;;;1.90;1.80;;;;;;;;;;4951690;28;20182;-80
2022/07/18 06:43:19;;;;;;;2.00;1.90;;;;;;;;;;4955427;28;20174;-80
2022/07/18 06:45:44;;;;;;;1.80;1.70;;;;;;;;;;4933951;29;20182;-79
2022/07/18 06:48:10;;;;;;;2.13;2.00;;;;;;;;;;4950166;28;20183;-80
2022/07/18 06:50:35;;;;;;;1.77;1.67;;;;;;;;;;4948286;29;20298;-80
2022/07/18 06:53:00;;;;;;;1.90;1.80;;;;;;;;;;4930635;29;20239;-80
2022/07/18 06:55:25;;;;;;;4.00;2.37;;;;;;;;;;4934696;29;20198;-80
2022/07/18 06:57:50;;;;;;;2.63;2.30;;;;;;;;;;4952259;28;20180;-80
2022/07/18 07:00:16;;;;;;;2.50;2.30;;;;;;;;;;4947158;28;20188;-80
2022/07/18 07:02:45;;;;;;;2.20;2.00;;;;;;;;;;4951247;28;20191;-80
2022/07/18 07:05:10;;;;;;;2.90;1.97;;;;;;;;;;4928548;28;20177;-80
2022/07/18 07:07:36;;;;;;;2.60;2.40;;;;;;;;;;4959334;28;20220;-80
2022/07/18 07:10:01;;;;;;;3.13;1.90;;;;;;;;;;4965997;28;20231;-80
2022/07/18 07:12:26;;;;;;;1.93;1.83;;;;;;;;;;4947892;28;20507;-80
2022/07/18 07:14:52;;;;;;;2.90;2.20;;;;;;;;;;4966989;28;20200;-80
2022/07/18 07:17:17;;;;;;;4.73;3.20;;;;;;;;;;4944967;28;20227;-80
2022/07/18 07:19:42;;;;;;;2.13;1.92;;;;;;;;;;4961209;28;20219;-80
2022/07/18 07:22:07;;;;;;;2.40;2.20;;;;;;;;;;4966135;28;20219;-79
2022/07/18 07:24:32;;;;;;;2.30;2.10;;;;;;;;;;4966183;28;20277;-80
2022/07/18 07:26:58;;;;;;;2.30;2.10;;;;;;;;;;4951648;28;20212;-79
2022/07/18 07:29:23;;;;;;;2.67;2.47;;;;;;;;;;4970308;28;20211;-81
2022/07/18 07:31:48;;;;;;;2.05;1.92;;;;;;;;;;4960999;28;20192;-82
2022/07/18 07:34:14;;;;;;;4.90;2.50;;;;;;;;;;4964984;28;20177;-83
2022/07/18 07:36:39;;;;;;;2.28;2.08;;;;;;;;;;4967681;28;20221;-83
2022/07/18 07:39:04;;;;;;;2.23;1.90;;;;;;;;;;4950785;29;20276;-82
2022/07/18 07:41:30;;;;;;;2.30;2.10;;;;;;;;;;4964456;28;20283;-81
2022/07/18 07:43:55;;;;;;;4.28;2.10;;;;;;;;;;4951652;28;20176;-82
2022/07/18 07:46:20;;;;;;;1.92;1.70;;;;;;;;;;4953084;28;20218;-82
2022/07/18 07:48:47;;;;;;;6.25;2.13;;;;;;;;;;4951806;28;20178;-83
2022/07/18 07:51:13;;;;;;;2.47;2.28;;;;;;;;;;4955900;28;20178;-82
2022/07/18 07:53:38;;;;;;;2.45;1.83;;;;;;;;;;4966814;28;20244;-81
2022/07/18 07:56:03;;;;;;;2.63;2.17;;;;;;;;;;4966997;28;20198;-82
2022/07/18 07:58:29;;;;;;;3.42;2.38;;;;;;;;;;4970392;28;20264;-82
2022/07/18 08:00:54;;;;;;;2.72;2.35;;;;;;;;;;4968086;28;20196;-83
2022/07/18 08:03:19;;;;;;;2.10;1.90;;;;;;;;;;4969110;28;20178;-82
2022/07/18 08:05:46;;;;;;;2.17;2.05;;;;;;;;;;4952881;28;20181;-82
2022/07/18 08:08:15;;;;;;;2.25;2.05;;;;;;;;;;4933789;29;20238;-82
2022/07/18 08:10:41;;;;;;;11.63;2.35;;;;;;;;;;4934752;29;20222;-82
2022/07/18 08:13:06;;;;;;;4.40;2.03;;;;;;;;;;4950171;29;20171;-84
2022/07/18 08:15:32;;;;;;;2.40;2.20;;;;;;;;;;4931718;29;20200;-82
2022/07/18 08:17:57;;;;;;;2.75;2.30;;;;;;;;;;4935746;29;20170;-83
2022/07/18 08:20:23;;;;;;;4.28;2.65;;;;;;;;;;4955016;28;20189;-82
2022/07/18 08:22:52;;;;;;;3.00;2.10;;;;;;;;;;4954810;28;20212;-81
2022/07/18 08:25:18;;;;;;;2.55;2.35;;;;;;;;;;4948996;29;20190;-83
2022/07/18 08:27:43;;;;;;;2.25;2.00;;;;;;;;;;4953185;28;20236;-83
2022/07/18 08:30:09;;;;;;;2.25;2.05;;;;;;;;;;4938588;29;20257;-84
2022/07/18 08:32:34;;;;;;;2.20;2.10;;;;;;;;;;4951216;29;20175;-83
2022/07/18 08:34:59;;;;;;;3.95;2.20;;;;;;;;;;4952081;28;20236;-83
2022/07/18 08:37:25;;;;;;;5.07;2.30;;;;;;;;;;4952664;28;20319;-83
2022/07/18 08:39:50;;;;;;;2.38;2.17;;;;;;;;;;4932834;29;20209;-82
2022/07/18 08:42:16;;;;;;;3.13;2.47;;;;;;;;;;4933785;29;20182;-83
2022/07/18 08:44:41;;;;;;;3.85;2.50;;;;;;;;;;4955770;28;20185;-81
2022/07/18 08:47:07;;;;;;;3.13;2.25;;;;;;;;;;4938331;28;20191;-84
2022/07/18 08:49:33;;;;;;;2.13;2.03;;;;;;;;;;4952110;28;20217;-85
2022/07/18 08:51:59;;;;;;;2.40;2.20;;;;;;;;;;4937735;29;20272;-84
2022/07/18 08:54:24;;;;;;;2.60;2.00;;;;;;;;;;4950010;28;20269;-85
2022/07/18 08:56:49;;;;;;;3.13;2.28;;;;;;;;;;4942320;29;20209;-84
2022/07/18 08:59:14;;;;;;;2.47;2.28;;;;;;;;;;4950090;29;20184;-85
2022/07/18 09:01:39;;;;;;;2.42;2.22;;;;;;;;;;4933982;29;20289;-85
2022/07/18 09:04:19;;;;;;;3.63;2.23;;;;;;;;;;4939675;29;20184;-84
2022/07/18 09:06:49;;;;;;;3.92;2.20;;;;;;;;;;4954897;28;20432;-84
2022/07/18 09:09:15;;;;;;;2.55;2.35;;;;;;;;;;4949967;28;20230;-83
2022/07/18 09:11:51;;;;;;;2.25;2.13;;;;;;;;;;4947837;29;20189;-84
2022/07/18 09:14:30;;;;;;;2.60;2.40;;;;;;;;;;4946093;29;20178;-84
2022/07/18 09:16:59;;;;;;;2.45;2.28;;;;;;;;;;4932751;29;20178;-84
2022/07/18 09:19:24;;;;;;;2.17;2.08;;;;;;;;;;4948764;28;20386;-84
2022/07/18 09:21:50;;;;;;;3.55;2.50;;;;;;;;;;4950351;28;20278;-84
2022/07/18 09:24:15;;;;;;;2.92;2.72;;;;;;;;;;4940574;29;20273;-84
2022/07/18 09:26:42;;;;;;;3.40;2.13;;;;;;;;;;4959898;28;20277;-85
2022/07/18 09:29:08;;;;;;;2.55;2.35;;;;;;;;;;4961924;28;20181;-84
2022/07/18 09:31:33;;;;;;;4.63;2.10;;;;;;;;;;4938468;28;20174;-85
2022/07/18 09:33:59;;;;;;;2.70;2.35;;;;;;;;;;4949236;29;20186;-85
2022/07/18 09:36:24;;;;;;;2.47;2.28;;;;;;;;;;4951058;28;20275;-84
2022/07/18 09:38:50;;;;;;;1.90;1.80;;;;;;;;;;4938442;29;20185;-86
2022/07/18 09:41:15;;;;;;;2.25;2.13;;;;;;;;;;4949316;29;20185;-85
2022/07/18 09:43:40;;;;;;;3.15;2.20;;;;;;;;;;4920551;29;20209;-85
2022/07/18 09:46:06;;;;;;;3.33;2.28;;;;;;;;;;4960358;28;20174;-83
2022/07/18 09:48:31;;;;;;;4.80;2.35;;;;;;;;;;4927861;29;20187;-85
2022/07/18 09:51:05;;;;;;;2.33;2.13;;;;;;;;;;4949511;28;20206;-85
2022/07/18 09:53:31;;;;;;;4.65;2.17;;;;;;;;;;4946946;29;20216;-84
2022/07/18 09:55:58;;;;;;;3.05;2.60;;;;;;;;;;4931468;29;20225;-86
2022/07/18 09:58:24;;;;;;;2.50;2.30;;;;;;;;;;4926552;29;20174;-85
2022/07/18 10:00:50;;;;;;;2.28;2.08;;;;;;;;;;4930758;29;20437;-85
2022/07/18 10:03:15;;;;;;;2.13;1.85;;;;;;;;;;4943563;29;20195;-84
2022/07/18 10:05:41;;;;;;;2.20;2.10;;;;;;;;;;4930423;29;20186;-86
2022/07/18 10:08:09;;;;;;;2.70;2.50;;;;;;;;;;4952911;28;20220;-85
2022/07/18 10:10:35;;;;;;;3.25;2.35;;;;;;;;;;4971162;28;20233;-85
2022/07/18 10:13:01;;;;;;;2.20;2.00;;;;;;;;;;4970892;28;20207;-85
2022/07/18 10:15:27;;;;;;;2.30;2.10;;;;;;;;;;4970863;28;20232;-85
2022/07/18 10:17:53;;;;;;;2.33;2.20;;;;;;;;;;4953093;28;20247;-84
2022/07/18 10:20:24;;;;;;;2.75;2.30;;;;;;;;;;4966810;28;20181;-85
2022/07/18 10:22:50;;;;;;;4.82;2.58;;;;;;;;;;4952075;28;20187;-85
2022/07/18 10:25:16;;;;;;;2.60;2.05;;;;;;;;;;4951876;28;20255;-85
2022/07/18 10:28:04;;;;;;;2.58;2.20;;;;;;;;;;4956396;28;20184;-85
2022/07/18 10:30:36;;;;;;;4.20;2.10;;;;;;;;;;4950629;28;20271;-84
2022/07/18 10:33:01;;;;;;;2.35;2.15;;;;;;;;;;4949854;28;20185;-85
2022/07/18 10:35:56;;;;;;;2.90;2.20;;;;;;;;;;4965155;28;20740;-83
2022/07/18 10:38:24;;;;;;;2.20;2.00;;;;;;;;;;4943801;28;21783;-85
2022/07/18 10:41:03;;;;;;;2.50;2.20;;;;;;;;;;4969710;28;20185;-85
2022/07/18 10:43:31;;;;;;;2.25;2.03;;;;;;;;;;4952360;28;20631;-84
2022/07/18 10:45:56;;;;;;;3.15;2.35;;;;;;;;;;4970060;28;20191;-84
2022/07/18 10:48:45;;;;;;;1.80;1.70;;;;;;;;;;4957700;28;20315;-86
2022/07/18 10:51:18;;;;;;;2.90;2.63;;;;;;;;;;4959324;28;20220;-84
2022/07/18 10:54:01;;;;;;;2.40;2.20;;;;;;;;;;4954276;28;20189;-84
2022/07/18 10:56:29;;;;;;;3.95;2.10;;;;;;;;;;4970272;28;20226;-84
2022/07/18 10:58:55;;;;;;;2.20;2.00;;;;;;;;;;4956127;28;20189;-86
2022/07/18 11:01:22;;;;;;;2.70;2.50;;;;;;;;;;4969093;28;20231;-86
2022/07/18 11:03:49;;;;;;;3.72;2.28;;;;;;;;;;4950709;28;20276;-85
2022/07/18 11:06:14;;;;;;;3.95;2.15;;;;;;;;;;4968550;28;20186;-85
2022/07/18 11:08:39;;;;;;;5.40;2.78;;;;;;;;;;4965491;28;20240;-86
2022/07/18 11:11:05;;;;;;;3.10;2.13;;;;;;;;;;4965944;28;20205;-86
2022/07/18 11:13:33;;;;;;;4.13;2.10;;;;;;;;;;4950440;28;20189;-86
2022/07/18 11:15:58;;;;;;;2.70;2.50;;;;;;;;;;4960838;28;20193;-86
2022/07/18 11:18:24;;;;;;;2.55;2.22;;;;;;;;;;4949795;29;20177;-85
2022/07/18 11:20:49;;;;;;;2.67;2.30;;;;;;;;;;4948497;28;20186;-85
2022/07/18 11:23:22;;;;;;;2.78;2.25;;;;;;;;;;4957741;28;20184;-86
2022/07/18 11:25:48;;;;;;;2.58;2.38;;;;;;;;;;4970239;28;20182;-86
2022/07/18 11:28:13;;;;;;;3.08;2.60;;;;;;;;;;4953232;28;20180;-85
2022/07/18 11:30:39;;;;;;;2.83;2.60;;;;;;;;;;4956575;28;20198;-85
2022/07/18 11:33:04;;;;;;;3.85;2.20;;;;;;;;;;4966894;28;20189;-85
2022/07/18 11:35:29;;;;;;;2.58;2.30;;;;;;;;;;4965229;28;20221;-84
2022/07/18 11:37:55;;;;;;;2.45;2.20;;;;;;;;;;4951377;28;20173;-86
2022/07/18 11:40:21;;;;;;;2.17;2.08;;;;;;;;;;4967767;28;20185;-86
2022/07/18 11:42:47;;;;;;;2.30;2.10;;;;;;;;;;4967236;28;20183;-86
2022/07/18 11:45:13;;;;;;;2.28;2.17;;;;;;;;;;4960207;28;20217;-86
2022/07/18 11:47:49;;;;;;;2.78;2.45;;;;;;;;;;4950344;28;20178;-85
2022/07/18 11:50:14;;;;;;;5.53;2.10;;;;;;;;;;4962599;28;20233;-86
2022/07/18 11:52:40;;;;;;;2.50;2.30;;;;;;;;;;4957334;28;20213;-85
2022/07/18 11:55:06;;;;;;;2.20;2.00;;;;;;;;;;4965787;28;21149;-86
2022/07/18 11:57:32;;;;;;;2.90;2.28;;;;;;;;;;4949874;28;20180;-87
2022/07/18 11:59:58;;;;;;;2.13;2.03;;;;;;;;;;4952530;28;20186;-85
2022/07/18 12:02:42;;;;;;;8.82;3.20;;;;;;;;;;4964221;28;20253;-86
2022/07/18 12:05:25;;;;;;;2.33;2.15;;;;;;;;;;4951429;29;20193;-86
2022/07/18 12:08:09;;;;;;;2.47;2.17;;;;;;;;;;4955810;28;20198;-86
2022/07/18 12:10:53;;;;;;;2.40;2.20;;;;;;;;;;4964779;28;20246;-86
2022/07/18 12:13:19;;;;;;;2.58;2.40;;;;;;;;;;4953190;28;20258;-86
2022/07/18 12:15:44;;;;;;;2.28;2.13;;;;;;;;;;4953973;28;20180;-86
2022/07/18 12:18:09;;;;;;;2.38;2.17;;;;;;;;;;4967566;28;20189;-86
2022/07/18 12:20:35;;;;;;;2.67;2.10;;;;;;;;;;4952492;28;20184;-86
2022/07/18 12:23:12;;;;;;;2.27;2.07;;;;;;;;;;4975496;28;20247;-86
2022/07/18 12:25:39;;;;;;;6.55;6.07;;;;;;;;;;4974744;28;20421;-86
2022/07/18 12:28:14;;;;;;;2.17;2.00;;;;;;;;;;4975810;28;20200;-86
2022/07/18 12:30:40;;;;;;;2.40;2.20;;;;;;;;;;4968234;28;20199;-86
2022/07/18 12:33:09;;;;;;;3.03;2.38;;;;;;;;;;4967273;28;20181;-86
2022/07/18 12:35:35;;;;;;;24.67;6.07;;;;;;;;;;4972345;28;20180;-87
2022/07/18 12:38:00;;;;;;;2.40;2.20;;;;;;;;;;4975441;28;20173;-87
2022/07/18 12:40:26;;;;;;;2.33;2.13;;;;;;;;;;4967660;28;20207;-86
2022/07/18 12:43:02;;;;;;;2.47;2.28;;;;;;;;;;4961337;28;20430;-86
2022/07/18 12:45:27;;;;;;;2.60;2.40;;;;;;;;;;4971712;28;20203;-86
2022/07/18 12:47:53;;;;;;;2.22;2.10;;;;;;;;;;4970591;28;20193;-86
2022/07/18 12:50:18;;;;;;;5.37;1.97;;;;;;;;;;4973744;28;20212;-87
2022/07/18 12:52:43;;;;;;;2.97;2.10;;;;;;;;;;4971343;28;20439;-86
2022/07/18 12:55:08;;;;;;;3.20;2.20;;;;;;;;;;4956808;28;20200;-86
2022/07/18 12:57:34;;;;;;;2.13;2.03;;;;;;;;;;4973736;28;20229;-86
2022/07/18 12:59:59;;;;;;;3.17;2.15;;;;;;;;;;4970574;28;20276;-86
2022/07/18 13:02:24;;;;;;;3.63;2.40;;;;;;;;;;4971630;28;20203;-87
2022/07/18 13:04:49;;;;;;;2.92;2.10;;;;;;;;;;4968935;28;20442;-86
2022/07/18 13:07:14;;;;;;;3.00;2.70;;;;;;;;;;4959156;28;20199;-87
2022/07/18 13:09:40;;;;;;;4.03;2.17;;;;;;;;;;4954804;28;20480;-87
2022/07/18 13:12:05;;;;;;;2.85;2.25;;;;;;;;;;4949925;29;20175;-86
2022/07/18 13:14:30;;;;;;;3.20;2.47;;;;;;;;;;4940658;29;20211;-87
2022/07/18 13:16:55;;;;;;;2.20;2.05;;;;;;;;;;4935144;29;20178;-87
2022/07/18 13:19:21;;;;;;;3.08;2.45;;;;;;;;;;4946416;29;20186;-87
2022/07/18 13:21:47;;;;;;;5.47;2.35;;;;;;;;;;4929022;29;20190;-86
2022/07/18 13:24:12;;;;;;;3.22;2.10;;;;;;;;;;4934055;29;20198;-86
2022/07/18 13:26:38;;;;;;;2.50;2.30;;;;;;;;;;4927859;29;20197;-87
2022/07/18 13:29:04;;;;;;;2.72;2.53;;;;;;;;;;4948829;28;20188;-87
2022/07/18 13:31:29;;;;;;;2.60;2.10;;;;;;;;;;4947801;28;20191;-87
2022/07/18 13:33:54;;;;;;;2.55;2.35;;;;;;;;;;4932685;29;20170;-86
2022/07/18 13:36:20;;;;;;;4.15;2.30;;;;;;;;;;4948582;28;20182;-87
2022/07/18 13:38:46;;;;;;;2.65;2.45;;;;;;;;;;4932626;29;20257;-87
2022/07/18 13:41:11;;;;;;;3.08;2.70;;;;;;;;;;4947786;28;20234;-87
2022/07/18 13:43:39;;;;;;;2.78;2.50;;;;;;;;;;4931444;29;20179;-86
2022/07/18 13:46:04;;;;;;;2.83;2.17;;;;;;;;;;4928991;29;20187;-86
2022/07/18 13:48:30;;;;;;;3.97;2.13;;;;;;;;;;4946872;28;20243;-87
2022/07/18 13:50:55;;;;;;;2.90;2.70;;;;;;;;;;4948148;29;20297;-87
2022/07/18 13:53:20;;;;;;;3.13;2.28;;;;;;;;;;4948818;29;20421;-88
2022/07/18 13:55:45;;;;;;;4.60;2.38;;;;;;;;;;4944018;29;20240;-87
2022/07/18 13:58:11;;;;;;;2.50;2.40;;;;;;;;;;4926925;29;20170;-87
2022/07/18 14:00:36;;;;;;;4.33;2.07;;;;;;;;;;4928382;29;20206;-87
2022/07/18 14:03:01;;;;;;;5.70;2.50;;;;;;;;;;4945629;28;20420;-87
2022/07/18 14:05:26;;;;;;;7.32;3.97;;;;;;;;;;4947793;28;20181;-87
2022/07/18 14:07:52;;;;;;;3.28;2.47;;;;;;;;;;4951646;28;20178;-87
2022/07/18 14:10:18;;;;;;;2.63;2.42;;;;;;;;;;4970881;28;20209;-87
2022/07/18 14:12:43;;;;;;;4.60;2.45;;;;;;;;;;4970912;28;20173;-87
2022/07/18 14:15:09;;;;;;;2.67;2.47;;;;;;;;;;4953346;28;20181;-87
2022/07/18 14:17:34;;;;;;;5.15;2.95;;;;;;;;;;4975128;28;20240;-87
2022/07/18 14:20:00;;;;;;;3.30;2.70;;;;;;;;;;4972039;28;20198;-88
2022/07/18 14:22:25;;;;;;;4.15;3.40;;;;;;;;;;4972705;28;20192;-88
2022/07/18 14:24:50;;;;;;;3.05;2.78;;;;;;;;;;4974110;28;20235;-88
2022/07/18 14:27:15;;;;;;;4.15;2.60;;;;;;;;;;4956545;28;20283;-87
2022/07/18 14:29:41;;;;;;;3.58;2.53;;;;;;;;;;4984552;28;20198;-87
2022/07/18 14:32:06;;;;;;;2.92;2.72;;;;;;;;;;4964938;28;20205;-87
2022/07/18 14:34:32;;;;;;;2.83;2.53;;;;;;;;;;4970368;28;20181;-87
2022/07/18 14:36:57;;;;;;;3.33;2.55;;;;;;;;;;4971202;28;20169;-86
2022/07/18 14:39:23;;;;;;;3.10;2.70;;;;;;;;;;4957439;28;20173;-87
2022/07/18 14:41:48;;;;;;;3.00;2.70;;;;;;;;;;4951402;28;20457;-88